createdAt,value
2023-02-17T00:02:32.830Z,15.00
2023-02-17T00:05:34.958Z,15.00
2023-02-17T00:08:37.400Z,14.90
2023-02-17T00:11:39.475Z,14.90
2023-02-17T00:14:41.671Z,15.00
2023-02-17T00:17:43.719Z,14.90
2023-02-17T00:20:45.837Z,14.90
2023-02-17T00:23:49.095Z,14.90
2023-02-17T00:26:51.484Z,14.90
2023-02-17T00:29:53.603Z,14.90
2023-02-17T00:32:55.725Z,14.80
2023-02-17T00:35:57.785Z,14.80
2023-02-17T00:38:59.876Z,14.80
2023-02-17T00:42:02.001Z,14.80
2023-02-17T00:45:05.255Z,14.80
2023-02-17T00:48:07.494Z,14.70
2023-02-17T00:51:10.360Z,14.70
2023-02-17T00:54:12.617Z,14.60
2023-02-17T00:57:14.888Z,14.60
2023-02-17T01:00:17.610Z,14.60
2023-02-17T01:03:19.961Z,14.50
2023-02-17T01:06:34.705Z,14.50
2023-02-17T01:09:37.730Z,14.50
2023-02-17T01:12:40.211Z,14.40
2023-02-17T01:15:45.008Z,14.40
2023-02-17T01:18:47.072Z,14.30
2023-02-17T01:21:50.084Z,14.30
2023-02-17T01:24:52.107Z,14.20
2023-02-17T01:27:54.188Z,14.20
2023-02-17T01:30:56.461Z,14.10
2023-02-17T01:34:00.735Z,14.10
2023-02-17T01:37:03.014Z,14.00
2023-02-17T01:40:05.602Z,14.00
2023-02-17T01:43:15.627Z,13.90
2023-02-17T01:46:17.680Z,13.80
2023-02-17T01:49:23.718Z,13.80
2023-02-17T01:52:26.994Z,13.70
2023-02-17T01:55:30.023Z,13.70
2023-02-17T01:58:33.148Z,13.60
2023-02-17T02:01:36.265Z,13.50
2023-02-17T02:04:40.863Z,13.50
2023-02-17T02:07:44.512Z,13.50
2023-02-17T02:10:46.584Z,13.40
2023-02-17T02:13:49.846Z,13.40
2023-02-17T02:17:31.747Z,13.30
2023-02-17T02:21:01.300Z,13.30
2023-02-17T02:24:20.464Z,13.30
2023-02-17T02:27:31.299Z,13.20
2023-02-17T02:30:48.230Z,13.20
2023-02-17T02:33:59.035Z,13.10
2023-02-17T02:37:23.692Z,13.10
2023-02-17T02:40:29.848Z,13.10
2023-02-17T02:43:32.618Z,13.10
2023-02-17T02:46:35.139Z,13.00
2023-02-17T02:49:37.333Z,13.00
2023-02-17T02:53:10.055Z,13.00
2023-02-17T02:56:30.413Z,13.00
2023-02-17T02:59:54.090Z,13.00
2023-02-17T03:03:21.438Z,13.00
2023-02-17T03:06:28.187Z,13.00
2023-02-17T03:09:31.055Z,12.90
2023-02-17T03:12:34.160Z,13.00
2023-02-17T03:15:36.408Z,13.00
2023-02-17T03:18:38.348Z,13.00
2023-02-17T03:21:53.673Z,13.00
2023-02-17T03:24:55.612Z,13.00
2023-02-17T03:27:57.763Z,12.90
2023-02-17T03:30:59.824Z,12.90
2023-02-17T03:34:02.415Z,12.90
2023-02-17T03:37:04.642Z,12.90
2023-02-17T03:40:09.160Z,12.90
2023-02-17T03:43:11.185Z,12.90
2023-02-17T03:46:14.932Z,12.80
2023-02-17T03:49:16.987Z,12.80
2023-02-17T03:52:19.603Z,12.70
2023-02-17T03:55:21.843Z,12.70
2023-02-17T03:58:23.967Z,12.70
2023-02-17T04:01:26.136Z,12.70
2023-02-17T04:04:28.281Z,12.60
2023-02-17T04:07:30.526Z,12.60
2023-02-17T04:10:32.520Z,12.60
2023-02-17T04:13:36.626Z,12.60
2023-02-17T04:16:39.415Z,12.60
2023-02-17T04:19:41.432Z,12.50
2023-02-17T04:22:46.340Z,12.50
2023-02-17T04:25:49.029Z,12.50
2023-02-17T04:28:57.460Z,12.50
2023-02-17T04:31:59.696Z,12.50
2023-02-17T04:35:03.204Z,12.50
2023-02-17T04:38:06.643Z,12.50
2023-02-17T04:41:10.562Z,12.40
2023-02-17T04:44:13.524Z,12.40
2023-02-17T04:47:15.595Z,12.40
2023-02-17T04:50:20.055Z,12.40
2023-02-17T04:53:22.956Z,12.50
2023-02-17T04:56:24.932Z,12.50
2023-02-17T04:59:26.922Z,12.50
2023-02-17T05:02:30.556Z,12.50
2023-02-17T05:05:32.766Z,12.40
2023-02-17T05:08:35.714Z,12.40
2023-02-17T05:11:37.757Z,12.40
2023-02-17T05:14:39.853Z,12.40
2023-02-17T05:17:41.884Z,12.40
2023-02-17T05:20:43.897Z,12.40
2023-02-17T05:23:45.898Z,12.40
2023-02-17T05:26:47.966Z,12.40
2023-02-17T05:29:50.115Z,12.40
2023-02-17T05:32:52.095Z,12.30
2023-02-17T05:35:54.053Z,12.30
2023-02-17T05:38:56.128Z,12.30
2023-02-17T05:41:58.095Z,12.20
2023-02-17T05:45:00.053Z,12.20
2023-02-17T05:48:02.215Z,12.10
2023-02-17T05:51:04.764Z,12.10
2023-02-17T05:54:06.988Z,12.10
2023-02-17T05:57:09.074Z,12.00
2023-02-17T06:00:12.047Z,12.00
2023-02-17T06:03:14.846Z,12.00
2023-02-17T06:06:16.900Z,11.90
2023-02-17T06:09:19.122Z,11.90
2023-02-17T06:12:21.526Z,11.80
2023-02-17T06:15:23.582Z,11.80
2023-02-17T06:18:25.576Z,11.70
2023-02-17T06:21:27.839Z,11.70
2023-02-17T06:24:30.035Z,11.70
2023-02-17T06:27:31.990Z,11.70
2023-02-17T06:30:34.385Z,11.60
2023-02-17T06:33:36.835Z,11.60
2023-02-17T06:36:39.260Z,11.60
2023-02-17T06:39:41.288Z,11.60
2023-02-17T06:42:43.438Z,11.60
2023-02-17T06:45:45.572Z,11.60
2023-02-17T06:48:47.687Z,11.60
2023-02-17T06:51:49.681Z,11.70
2023-02-17T06:54:51.775Z,11.70
2023-02-17T06:57:53.738Z,11.70
2023-02-17T07:00:55.790Z,11.70
2023-02-17T07:03:58.103Z,11.70
2023-02-17T07:07:03.753Z,11.70
2023-02-17T07:10:06.455Z,11.70
2023-02-17T07:13:08.405Z,11.80
2023-02-17T07:16:12.896Z,11.70
2023-02-17T07:19:14.957Z,11.70
2023-02-17T07:22:17.109Z,11.70
2023-02-17T07:25:20.141Z,11.70
2023-02-17T07:28:22.170Z,11.70
2023-02-17T07:31:24.371Z,11.60
2023-02-17T07:34:27.309Z,11.60
2023-02-17T07:37:29.555Z,11.60
2023-02-17T07:40:31.661Z,11.60
2023-02-17T07:43:33.784Z,11.60
2023-02-17T07:46:36.355Z,11.60
2023-02-17T07:49:38.819Z,11.60
2023-02-17T07:52:41.001Z,11.70
2023-02-17T07:55:42.958Z,11.70
2023-02-17T07:58:45.773Z,11.70
2023-02-17T08:01:47.877Z,11.70
2023-02-17T08:04:52.699Z,11.70
2023-02-17T08:08:13.289Z,11.80
2023-02-17T08:11:35.410Z,11.90
2023-02-17T08:14:38.493Z,12.10
2023-02-17T08:17:40.775Z,12.60
2023-02-17T08:20:43.064Z,13.10
2023-02-17T08:23:46.016Z,13.50
2023-02-17T08:26:49.600Z,14.00
2023-02-17T08:29:51.641Z,14.50
2023-02-17T08:32:53.826Z,14.90
2023-02-17T08:35:55.833Z,15.30
2023-02-17T08:38:58.692Z,15.30
2023-02-17T08:42:01.190Z,15.40
2023-02-17T08:45:05.030Z,15.40
2023-02-17T08:48:07.935Z,15.30
2023-02-17T08:51:14.434Z,15.60
2023-02-17T08:54:19.571Z,16.00
2023-02-17T08:57:40.391Z,16.40
2023-02-17T09:00:42.894Z,17.00
2023-02-17T09:03:46.851Z,17.20
2023-02-17T09:06:55.217Z,17.30
2023-02-17T09:09:58.053Z,17.80
2023-02-17T09:13:00.317Z,18.20
2023-02-17T09:16:03.527Z,19.10
2023-02-17T09:19:05.682Z,19.80
2023-02-17T09:22:07.964Z,19.30
2023-02-17T09:25:10.533Z,19.40
2023-02-17T09:28:14.274Z,19.30
2023-02-17T09:31:20.345Z,19.50
2023-02-17T09:34:22.786Z,19.30
2023-02-17T09:37:24.940Z,18.60
2023-02-17T09:40:49.800Z,18.50
2023-02-17T09:43:52.604Z,18.50
2023-02-17T09:47:03.231Z,18.20
2023-02-17T09:50:12.236Z,18.30
2023-02-17T09:53:32.538Z,18.30
2023-02-17T09:56:39.792Z,19.30
2023-02-17T10:00:04.540Z,19.80
2023-02-17T10:03:17.468Z,20.10
2023-02-17T10:06:24.467Z,21.00
2023-02-17T10:09:52.664Z,21.70
2023-02-17T10:13:00.632Z,22.70
2023-02-17T10:16:08.632Z,22.90
2023-02-17T10:19:31.716Z,21.00
2023-02-17T10:22:35.287Z,19.90
2023-02-17T10:26:01.788Z,18.60
2023-02-17T10:29:28.282Z,17.70
2023-02-17T10:32:49.588Z,16.90
2023-02-17T10:35:55.666Z,16.80
2023-02-17T10:39:16.123Z,17.30
2023-02-17T10:42:28.454Z,17.90
2023-02-17T10:45:45.333Z,18.50
2023-02-17T10:48:51.783Z,18.90
2023-02-17T10:51:53.829Z,18.50
2023-02-17T10:55:25.308Z,17.70
2023-02-17T10:58:34.464Z,17.30
2023-02-17T11:01:37.245Z,17.00
2023-02-17T11:04:44.540Z,16.60
2023-02-17T11:07:46.958Z,16.60
2023-02-17T11:11:01.281Z,17.20
2023-02-17T11:14:06.150Z,17.90
2023-02-17T11:17:26.569Z,19.50
2023-02-17T11:20:34.635Z,19.30
2023-02-17T11:23:49.047Z,19.30
2023-02-17T11:27:01.117Z,18.60
2023-02-17T11:30:09.311Z,18.10
2023-02-17T11:33:24.017Z,17.70
2023-02-17T11:36:29.157Z,18.00
2023-02-17T11:39:31.240Z,18.00
2023-02-17T11:42:34.255Z,18.10
2023-02-17T11:45:45.350Z,17.80
2023-02-17T11:49:25.663Z,17.60
2023-02-17T11:52:36.877Z,18.10
2023-02-17T11:56:12.016Z,18.20
2023-02-17T11:59:14.113Z,17.90
2023-02-17T12:03:00.767Z,17.50
2023-02-17T12:06:13.403Z,17.70
2023-02-17T12:09:30.128Z,17.50
2023-02-17T12:12:40.851Z,17.70
2023-02-17T12:16:16.464Z,17.90
2023-02-17T12:19:43.980Z,18.30
2023-02-17T12:23:11.676Z,18.40
2023-02-17T12:26:50.464Z,18.60
2023-02-17T12:30:07.755Z,18.90
2023-02-17T12:33:33.875Z,18.70
2023-02-17T12:36:40.382Z,18.90
2023-02-17T12:39:55.815Z,18.60
2023-02-17T12:43:07.183Z,18.70
2023-02-17T12:46:17.373Z,18.60
2023-02-17T12:49:34.922Z,18.70
2023-02-17T12:52:44.585Z,18.30
2023-02-17T12:55:54.476Z,18.30
2023-02-17T12:59:06.192Z,18.00
2023-02-17T13:02:15.667Z,17.90
2023-02-17T13:05:29.381Z,18.00
2023-02-17T13:08:47.206Z,18.00
2023-02-17T13:11:49.400Z,18.10
2023-02-17T13:15:05.671Z,17.90
2023-02-17T13:18:13.998Z,18.00
2023-02-17T13:21:16.276Z,18.00
2023-02-17T13:24:37.163Z,17.90
2023-02-17T13:27:40.316Z,17.70
2023-02-17T13:30:45.308Z,17.80
2023-02-17T13:33:54.303Z,17.80
2023-02-17T13:36:57.088Z,17.70
2023-02-17T13:40:00.785Z,17.70
2023-02-17T13:43:15.767Z,17.80
2023-02-17T13:46:27.480Z,17.80
2023-02-17T13:49:34.053Z,17.90
2023-02-17T13:52:36.286Z,18.00
2023-02-17T13:55:41.794Z,18.00
2023-02-17T13:58:44.102Z,18.10
2023-02-17T14:01:47.222Z,18.20
2023-02-17T14:04:49.324Z,18.30
2023-02-17T14:07:57.238Z,18.30
2023-02-17T14:11:08.556Z,18.50
2023-02-17T14:14:11.710Z,18.40
2023-02-17T14:17:32.727Z,18.40
2023-02-17T14:20:36.542Z,18.40
2023-02-17T14:24:05.459Z,18.40
2023-02-17T14:27:14.129Z,18.50
2023-02-17T14:30:40.007Z,18.60
2023-02-17T14:34:02.419Z,18.60
2023-02-17T14:37:18.495Z,18.70
2023-02-17T14:40:25.164Z,18.80
2023-02-17T14:43:28.449Z,18.70
2023-02-17T14:46:30.586Z,18.80
2023-02-17T14:49:33.050Z,18.90
2023-02-17T14:52:49.847Z,19.00
2023-02-17T14:56:14.518Z,18.90
2023-02-17T14:59:16.609Z,19.00
2023-02-17T15:02:20.874Z,19.00
2023-02-17T15:05:23.116Z,19.10
2023-02-17T15:08:33.340Z,19.00
2023-02-17T15:11:37.568Z,19.00
2023-02-17T15:14:39.900Z,19.00
2023-02-17T15:17:42.089Z,19.00
2023-02-17T15:20:47.616Z,18.80
2023-02-17T15:23:53.736Z,18.80
2023-02-17T15:26:55.928Z,18.90
2023-02-17T15:29:58.293Z,18.90
2023-02-17T15:33:02.106Z,18.90
2023-02-17T15:36:05.018Z,19.00
2023-02-17T15:39:11.285Z,19.00
2023-02-17T15:42:14.704Z,19.00
2023-02-17T15:45:20.483Z,19.00
2023-02-17T15:48:25.346Z,19.00
2023-02-17T15:51:27.526Z,18.90
2023-02-17T15:54:29.588Z,18.90
2023-02-17T15:57:32.632Z,19.00
2023-02-17T16:00:36.285Z,19.00
2023-02-17T16:03:38.660Z,18.90
2023-02-17T16:06:41.586Z,18.90
2023-02-17T16:09:43.984Z,18.90
2023-02-17T16:12:48.282Z,18.90
2023-02-17T16:15:50.429Z,18.80
2023-02-17T16:18:52.486Z,18.80
2023-02-17T16:21:55.032Z,18.80
2023-02-17T16:24:57.275Z,18.80
2023-02-17T16:27:59.593Z,18.90
2023-02-17T16:31:01.673Z,18.90
2023-02-17T16:34:03.743Z,18.90
2023-02-17T16:37:14.226Z,19.00
2023-02-17T16:40:17.507Z,19.00
2023-02-17T16:43:30.607Z,18.90
2023-02-17T16:46:36.673Z,18.80
2023-02-17T16:49:40.723Z,18.80
2023-02-17T16:52:42.853Z,18.70
2023-02-17T16:55:45.389Z,18.70
2023-02-17T16:58:47.459Z,18.70
2023-02-17T17:01:51.187Z,18.70
2023-02-17T17:04:53.312Z,18.70
2023-02-17T17:07:56.235Z,18.70
2023-02-17T17:10:58.307Z,18.60
2023-02-17T17:14:00.507Z,18.60
2023-02-17T17:17:03.010Z,18.60
2023-02-17T17:20:05.639Z,18.60
2023-02-17T17:23:11.724Z,18.50
2023-02-17T17:26:34.120Z,18.50
2023-02-17T17:29:36.145Z,18.40
2023-02-17T17:32:38.400Z,18.30
2023-02-17T17:35:41.493Z,18.30
2023-02-17T17:38:43.668Z,18.20
2023-02-17T17:41:47.603Z,18.20
2023-02-17T17:44:49.915Z,18.20
2023-02-17T17:47:52.102Z,18.10
2023-02-17T17:50:54.119Z,18.00
2023-02-17T17:53:57.261Z,17.90
2023-02-17T17:56:59.248Z,17.90
2023-02-17T18:00:01.462Z,17.90
2023-02-17T18:03:04.585Z,17.80
2023-02-17T18:06:10.561Z,17.80
2023-02-17T18:09:30.349Z,17.70
2023-02-17T18:12:34.333Z,17.70
2023-02-17T18:15:37.032Z,17.60
2023-02-17T18:18:39.901Z,17.50
2023-02-17T18:21:42.099Z,17.50
2023-02-17T18:24:47.544Z,17.40
2023-02-17T18:27:50.025Z,17.40
2023-02-17T18:30:52.281Z,17.30
2023-02-17T18:33:55.408Z,17.30
2023-02-17T18:36:57.571Z,17.30
2023-02-17T18:40:00.999Z,17.20
2023-02-17T18:43:03.224Z,17.20
2023-02-17T18:46:06.721Z,17.10
2023-02-17T18:49:09.432Z,17.10
2023-02-17T18:52:11.602Z,17.10
2023-02-17T18:55:14.128Z,17.00
2023-02-17T18:58:16.473Z,17.00
2023-02-17T19:01:29.330Z,17.00
2023-02-17T19:04:31.589Z,17.00
2023-02-17T19:07:34.742Z,16.90
2023-02-17T19:10:36.926Z,16.90
2023-02-17T19:13:39.363Z,16.90
2023-02-17T19:16:41.468Z,16.90
2023-02-17T19:19:43.572Z,16.90
2023-02-17T19:22:45.857Z,16.80
2023-02-17T19:25:49.061Z,16.80
2023-02-17T19:28:51.469Z,16.80
2023-02-17T19:31:53.980Z,16.70
2023-02-17T19:34:56.337Z,16.70
2023-02-17T19:37:58.737Z,16.60
2023-02-17T19:41:05.290Z,16.60
2023-02-17T19:44:07.781Z,16.60
2023-02-17T19:47:10.268Z,16.60
2023-02-17T19:50:12.471Z,16.50
2023-02-17T19:53:14.829Z,16.50
2023-02-17T19:56:25.478Z,16.50
2023-02-17T19:59:27.893Z,16.40
2023-02-17T20:02:30.093Z,16.40
2023-02-17T20:05:37.332Z,16.40
2023-02-17T20:08:39.723Z,16.40
2023-02-17T20:11:43.484Z,16.40
2023-02-17T20:14:45.924Z,16.30
2023-02-17T20:17:48.303Z,16.30
2023-02-17T20:20:56.475Z,16.30
2023-02-17T20:23:59.484Z,16.20
2023-02-17T20:27:02.286Z,16.20
2023-02-17T20:30:06.346Z,16.20
2023-02-17T20:33:09.754Z,16.20
2023-02-17T20:36:12.361Z,16.20
2023-02-17T20:39:14.865Z,16.20
2023-02-17T20:42:17.017Z,16.20
2023-02-17T20:45:19.068Z,16.20
2023-02-17T20:48:21.990Z,16.20
2023-02-17T20:51:24.790Z,16.20
2023-02-17T20:54:27.198Z,16.20
2023-02-17T20:57:29.272Z,16.20
2023-02-17T21:00:31.788Z,16.20
2023-02-17T21:03:34.023Z,16.20
2023-02-17T21:06:41.390Z,16.20
2023-02-17T21:09:43.481Z,16.10
2023-02-17T21:12:45.746Z,16.10
2023-02-17T21:15:47.962Z,16.00
2023-02-17T21:18:50.540Z,16.00
2023-02-17T21:21:52.952Z,15.90
2023-02-17T21:24:55.169Z,15.80
2023-02-17T21:27:57.544Z,15.80
2023-02-17T21:30:59.663Z,15.70
2023-02-17T21:34:01.912Z,15.60
2023-02-17T21:37:04.848Z,15.60
2023-02-17T21:40:10.852Z,15.60
2023-02-17T21:43:32.955Z,15.60
2023-02-17T21:46:37.569Z,15.60
2023-02-17T21:49:39.822Z,15.60
2023-02-17T21:52:42.864Z,15.60
2023-02-17T21:55:46.487Z,15.60
2023-02-17T21:58:50.735Z,15.60
2023-02-17T22:01:53.910Z,15.60
2023-02-17T22:04:58.072Z,15.70
2023-02-17T22:08:00.660Z,15.70
2023-02-17T22:11:03.285Z,15.70
2023-02-17T22:14:10.398Z,15.70
2023-02-17T22:17:15.195Z,15.70
2023-02-17T22:20:17.569Z,15.70
2023-02-17T22:23:19.623Z,15.70
2023-02-17T22:26:24.223Z,15.80
2023-02-17T22:29:26.603Z,15.80
2023-02-17T22:32:29.868Z,15.80
2023-02-17T22:35:32.744Z,15.70
2023-02-17T22:38:35.645Z,15.70
2023-02-17T22:41:39.519Z,15.60
2023-02-17T22:44:41.843Z,15.50
2023-02-17T22:47:44.130Z,15.50
2023-02-17T22:50:46.164Z,15.40
2023-02-17T22:53:49.390Z,15.40
2023-02-17T22:56:51.436Z,15.30
2023-02-17T22:59:53.704Z,15.30
2023-02-17T23:02:55.956Z,15.20
2023-02-17T23:06:02.727Z,15.30
2023-02-17T23:09:06.222Z,15.20
2023-02-17T23:12:08.669Z,15.10
2023-02-17T23:15:12.565Z,15.10
2023-02-17T23:18:17.754Z,15.00
2023-02-17T23:21:20.261Z,15.00
2023-02-17T23:24:23.872Z,15.00
2023-02-17T23:27:27.053Z,15.00
2023-02-17T23:30:29.419Z,15.10
2023-02-17T23:33:31.464Z,15.10
2023-02-17T23:36:33.667Z,15.00
2023-02-17T23:39:38.286Z,15.00
2023-02-17T23:42:40.385Z,15.00
2023-02-17T23:45:42.626Z,15.10
2023-02-17T23:48:44.821Z,15.10
2023-02-17T23:51:47.333Z,15.00
2023-02-17T23:54:50.591Z,15.10
2023-02-17T23:57:52.692Z,15.00
